createdAt,value
2018-12-05T00:00:49.441Z,18.70
2018-12-05T00:01:49.374Z,18.00
2018-12-05T00:02:49.377Z,17.50
2018-12-05T00:03:49.379Z,18.20
2018-12-05T00:04:49.372Z,19.00
2018-12-05T00:05:49.359Z,18.40
2018-12-05T00:06:49.394Z,19.10
2018-12-05T00:07:49.362Z,17.50
2018-12-05T00:08:49.368Z,18.00
2018-12-05T00:09:49.370Z,17.00
2018-12-05T00:10:49.375Z,16.90
2018-12-05T00:11:49.358Z,18.40
2018-12-05T00:12:49.342Z,18.10
2018-12-05T00:13:49.362Z,17.20
2018-12-05T00:14:49.353Z,17.30
2018-12-05T00:15:49.364Z,16.60
2018-12-05T00:16:49.336Z,16.80
2018-12-05T00:17:49.360Z,18.50
2018-12-05T00:18:49.456Z,16.90
2018-12-05T00:19:49.391Z,16.80
2018-12-05T00:20:49.370Z,17.00
2018-12-05T00:21:49.335Z,16.60
2018-12-05T00:22:49.320Z,16.30
2018-12-05T00:23:49.325Z,15.70
2018-12-05T00:24:49.335Z,16.00
2018-12-05T00:25:49.324Z,15.50
2018-12-05T00:26:49.346Z,15.30
2018-12-05T00:27:49.329Z,14.40
2018-12-05T00:28:49.323Z,14.10
2018-12-05T00:29:49.318Z,13.80
2018-12-05T00:30:49.341Z,13.30
2018-12-05T00:31:49.411Z,14.00
2018-12-05T00:32:49.300Z,14.00
2018-12-05T00:33:49.311Z,13.80
2018-12-05T00:34:49.340Z,13.90
2018-12-05T00:35:49.364Z,14.20
2018-12-05T00:36:49.314Z,13.90
2018-12-05T00:37:49.321Z,14.40
2018-12-05T00:38:49.330Z,14.30
2018-12-05T00:39:49.286Z,13.10
2018-12-05T00:40:49.297Z,13.00
2018-12-05T00:41:49.282Z,13.60
2018-12-05T00:42:49.281Z,14.00
2018-12-05T00:43:49.277Z,13.90
2018-12-05T00:44:49.273Z,13.30
2018-12-05T00:45:49.273Z,13.90
2018-12-05T00:46:49.260Z,14.20
2018-12-05T00:47:49.342Z,13.60
2018-12-05T00:48:49.290Z,13.10
2018-12-05T00:49:49.349Z,14.30
2018-12-05T00:50:49.297Z,12.80
2018-12-05T00:51:49.260Z,13.60
2018-12-05T00:52:49.252Z,13.70
2018-12-05T00:53:49.251Z,14.30
2018-12-05T00:54:49.245Z,13.50
2018-12-05T00:55:49.246Z,13.60
2018-12-05T00:56:49.245Z,13.70
2018-12-05T00:57:49.324Z,13.10
2018-12-05T00:58:49.251Z,13.40
2018-12-05T00:59:49.252Z,14.00
2018-12-05T01:00:49.232Z,13.50
2018-12-05T01:01:49.227Z,13.90
2018-12-05T01:02:49.225Z,13.70
2018-12-05T01:03:49.249Z,13.50
2018-12-05T01:04:49.228Z,13.60
2018-12-05T01:05:49.223Z,13.70
2018-12-05T01:06:49.222Z,14.70
2018-12-05T01:07:49.214Z,14.10
2018-12-05T01:08:49.218Z,14.40
2018-12-05T01:09:49.218Z,14.30
2018-12-05T01:10:49.217Z,13.50
2018-12-05T01:11:49.211Z,13.40
2018-12-05T01:12:49.216Z,14.20
2018-12-05T01:13:49.210Z,14.00
2018-12-05T01:14:49.215Z,13.90
2018-12-05T01:15:50.778Z,13.80
2018-12-05T01:16:49.243Z,13.60
2018-12-05T01:17:49.230Z,14.50
2018-12-05T01:18:49.200Z,13.30
2018-12-05T01:19:49.208Z,13.90
2018-12-05T01:20:49.232Z,14.40
2018-12-05T01:21:49.173Z,14.80
2018-12-05T01:22:49.205Z,14.60
2018-12-05T01:23:49.170Z,15.00
2018-12-05T01:24:49.182Z,15.20
2018-12-05T01:25:49.189Z,14.80
2018-12-05T01:26:49.219Z,15.00
2018-12-05T01:27:49.173Z,14.60
2018-12-05T01:28:49.164Z,15.20
2018-12-05T01:29:49.174Z,15.70
2018-12-05T01:30:49.157Z,15.00
2018-12-05T01:31:49.155Z,15.40
2018-12-05T01:32:49.168Z,16.10
2018-12-05T01:33:49.161Z,15.20
2018-12-05T01:34:49.160Z,15.60
2018-12-05T01:35:49.153Z,15.20
2018-12-05T01:36:49.146Z,15.60
2018-12-05T01:37:49.151Z,16.40
2018-12-05T01:38:49.137Z,15.00
2018-12-05T01:39:49.149Z,15.60
2018-12-05T01:40:49.127Z,14.80
2018-12-05T01:41:49.126Z,15.60
2018-12-05T01:42:49.148Z,15.60
2018-12-05T01:43:49.144Z,16.00
2018-12-05T01:44:49.116Z,16.40
2018-12-05T01:45:49.114Z,16.70
2018-12-05T01:46:49.125Z,15.90
2018-12-05T01:47:49.110Z,15.80
2018-12-05T01:48:49.110Z,16.40
2018-12-05T01:49:49.111Z,16.50
2018-12-05T01:50:49.100Z,15.90
2018-12-05T01:51:49.106Z,17.50
2018-12-05T01:52:49.120Z,17.10
2018-12-05T01:53:49.096Z,17.40
2018-12-05T01:54:49.100Z,17.50
2018-12-05T01:55:49.104Z,17.20
2018-12-05T01:56:49.099Z,17.80
2018-12-05T01:57:49.101Z,17.10
2018-12-05T01:58:49.102Z,17.70
2018-12-05T01:59:49.110Z,17.60
2018-12-05T02:00:49.096Z,19.30
2018-12-05T02:01:49.083Z,18.60
2018-12-05T02:02:49.134Z,19.00
2018-12-05T02:03:49.105Z,18.50
2018-12-05T02:04:49.085Z,18.60
2018-12-05T02:05:49.092Z,18.40
2018-12-05T02:06:49.094Z,17.80
2018-12-05T02:07:49.061Z,18.90
2018-12-05T02:08:49.064Z,17.90
2018-12-05T02:09:49.069Z,19.20
2018-12-05T02:10:49.086Z,19.20
2018-12-05T02:11:49.051Z,19.80
2018-12-05T02:12:49.049Z,19.70
2018-12-05T02:13:49.045Z,18.70
2018-12-05T02:14:49.052Z,19.10
2018-12-05T02:15:49.051Z,20.10
2018-12-05T02:16:49.047Z,20.40
2018-12-05T02:17:49.031Z,19.00
2018-12-05T02:18:49.044Z,20.70
2018-12-05T02:19:49.033Z,19.60
2018-12-05T02:20:49.029Z,19.20
2018-12-05T02:21:49.061Z,19.90
2018-12-05T02:22:49.025Z,19.40
2018-12-05T02:23:49.055Z,20.00
2018-12-05T02:24:49.045Z,18.70
2018-12-05T02:25:49.032Z,18.20
2018-12-05T02:26:49.024Z,19.00
2018-12-05T02:27:49.014Z,17.80
2018-12-05T02:28:49.008Z,18.80
2018-12-05T02:29:49.032Z,18.10
2018-12-05T02:30:49.027Z,18.20
2018-12-05T02:31:49.031Z,18.30
2018-12-05T02:32:49.024Z,17.50
2018-12-05T02:33:49.014Z,17.40
2018-12-05T02:34:49.021Z,18.10
2018-12-05T02:35:48.997Z,18.30
2018-12-05T02:36:49.004Z,17.90
2018-12-05T02:37:48.997Z,16.90
2018-12-05T02:38:49.000Z,18.30
2018-12-05T02:39:48.977Z,17.60
2018-12-05T02:40:48.973Z,18.00
2018-12-05T02:41:48.980Z,18.10
2018-12-05T02:42:48.975Z,19.10
2018-12-05T02:43:48.983Z,18.70
2018-12-05T02:44:48.988Z,18.30
2018-12-05T02:45:48.991Z,18.10
2018-12-05T02:46:48.967Z,18.60
2018-12-05T02:47:48.975Z,18.30
2018-12-05T02:48:48.987Z,18.90
2018-12-05T02:49:48.981Z,18.10
2018-12-05T02:50:48.962Z,19.30
2018-12-05T02:51:48.947Z,19.70
2018-12-05T02:52:48.967Z,20.20
2018-12-05T02:53:48.956Z,19.00
2018-12-05T02:54:48.968Z,18.50
2018-12-05T02:55:49.062Z,19.20
2018-12-05T02:56:48.946Z,19.50
2018-12-05T02:57:48.934Z,18.40
2018-12-05T02:58:48.985Z,19.10
2018-12-05T02:59:48.939Z,19.30
2018-12-05T03:00:48.934Z,18.80
2018-12-05T03:01:48.931Z,19.20
2018-12-05T03:02:48.944Z,19.60
2018-12-05T03:03:48.919Z,18.60
2018-12-05T03:04:48.915Z,18.80
2018-12-05T03:05:48.928Z,18.10
2018-12-05T03:06:48.937Z,18.00
2018-12-05T03:07:48.937Z,18.40
2018-12-05T03:08:48.904Z,18.50
2018-12-05T03:09:48.917Z,18.60
2018-12-05T03:10:48.924Z,18.90
2018-12-05T03:11:48.972Z,19.70
2018-12-05T03:12:48.895Z,19.20
2018-12-05T03:13:49.009Z,19.10
2018-12-05T03:14:48.903Z,19.00
2018-12-05T03:15:48.891Z,18.80
2018-12-05T03:16:48.887Z,18.20
2018-12-05T03:17:48.898Z,17.80
2018-12-05T03:18:48.893Z,18.60
2018-12-05T03:19:48.873Z,18.40
2018-12-05T03:20:48.873Z,18.20
2018-12-05T03:21:48.888Z,18.30
2018-12-05T03:22:48.872Z,18.60
2018-12-05T03:23:48.894Z,18.50
2018-12-05T03:24:48.870Z,19.00
2018-12-05T03:25:48.853Z,17.30
2018-12-05T03:26:48.853Z,19.30
2018-12-05T03:27:48.871Z,18.90
2018-12-05T03:28:48.877Z,18.50
2018-12-05T03:29:48.841Z,18.70
2018-12-05T03:30:48.857Z,18.40
2018-12-05T03:31:48.845Z,18.80
2018-12-05T03:32:48.881Z,17.50
2018-12-05T03:33:48.840Z,17.30
2018-12-05T03:34:48.860Z,18.40
2018-12-05T03:35:48.829Z,18.10
2018-12-05T03:36:48.842Z,17.20
2018-12-05T03:37:48.826Z,17.60
2018-12-05T03:38:48.852Z,18.00
2018-12-05T03:39:48.826Z,17.60
2018-12-05T03:40:48.837Z,17.70
2018-12-05T03:41:48.837Z,17.50
2018-12-05T03:42:48.806Z,18.30
2018-12-05T03:43:48.826Z,18.30
2018-12-05T03:44:48.829Z,18.40
2018-12-05T03:45:48.836Z,17.70
2018-12-05T03:46:48.799Z,18.30
2018-12-05T03:47:48.797Z,17.80
2018-12-05T03:48:48.797Z,16.90
2018-12-05T03:49:48.812Z,16.30
2018-12-05T03:50:48.789Z,16.50
2018-12-05T03:51:48.781Z,17.20
2018-12-05T03:52:48.776Z,16.90
2018-12-05T03:53:48.788Z,17.80
2018-12-05T03:54:48.782Z,18.00
2018-12-05T03:55:48.776Z,17.90
2018-12-05T03:56:48.786Z,17.80
2018-12-05T03:57:48.768Z,18.70
2018-12-05T03:58:48.776Z,17.80
2018-12-05T03:59:48.771Z,17.30
2018-12-05T04:00:48.774Z,17.80
2018-12-05T04:01:48.789Z,17.40
2018-12-05T04:02:48.794Z,18.10
2018-12-05T04:03:48.758Z,16.80
2018-12-05T04:04:48.767Z,17.40
2018-12-05T04:05:48.756Z,17.70
2018-12-05T04:06:48.757Z,18.30
2018-12-05T04:07:48.748Z,18.70
2018-12-05T04:08:48.750Z,17.00
2018-12-05T04:09:48.734Z,18.50
2018-12-05T04:10:48.756Z,18.10
2018-12-05T04:11:48.745Z,17.50
2018-12-05T04:12:48.754Z,17.40
2018-12-05T04:13:48.727Z,18.50
2018-12-05T04:14:48.722Z,17.70
2018-12-05T04:15:48.729Z,17.60
2018-12-05T04:16:48.717Z,17.10
2018-12-05T04:17:48.716Z,17.60
2018-12-05T04:18:48.735Z,17.90
2018-12-05T04:19:48.713Z,17.50
2018-12-05T04:20:48.717Z,17.50
2018-12-05T04:21:48.701Z,18.10
2018-12-05T04:22:48.712Z,18.40
2018-12-05T04:23:48.699Z,17.90
2018-12-05T04:24:48.704Z,17.90
2018-12-05T04:25:48.687Z,18.50
2018-12-05T04:26:48.689Z,17.70
2018-12-05T04:27:48.681Z,17.80
2018-12-05T04:28:48.685Z,18.50
2018-12-05T04:29:48.679Z,18.40
2018-12-05T04:30:48.684Z,18.20
2018-12-05T04:31:48.680Z,20.30
2018-12-05T04:32:48.678Z,18.40
2018-12-05T04:33:48.679Z,19.00
2018-12-05T04:34:48.664Z,18.90
2018-12-05T04:35:48.679Z,18.10
2018-12-05T04:36:48.677Z,18.80
2018-12-05T04:37:48.715Z,17.50
2018-12-05T04:38:48.672Z,18.60
2018-12-05T04:39:48.663Z,18.20
2018-12-05T04:40:48.651Z,17.90
2018-12-05T04:41:48.652Z,18.30
2018-12-05T04:42:48.661Z,18.60
2018-12-05T04:43:48.651Z,18.50
2018-12-05T04:44:48.633Z,18.70
2018-12-05T04:45:48.644Z,18.10
2018-12-05T04:46:48.629Z,18.10
2018-12-05T04:47:48.641Z,19.20
2018-12-05T04:48:48.639Z,19.30
2018-12-05T04:49:48.621Z,19.20
2018-12-05T04:50:48.706Z,17.60
2018-12-05T04:51:48.633Z,19.10
2018-12-05T04:52:48.612Z,17.60
2018-12-05T04:53:48.601Z,19.00
2018-12-05T04:54:48.618Z,17.50
2018-12-05T04:55:48.608Z,19.80
2018-12-05T04:56:48.619Z,19.70
2018-12-05T04:57:48.597Z,18.80
2018-12-05T04:58:48.595Z,17.60
2018-12-05T04:59:48.597Z,19.00
2018-12-05T05:00:48.602Z,19.30
2018-12-05T05:01:48.582Z,19.10
2018-12-05T05:02:48.616Z,18.90
2018-12-05T05:03:48.583Z,18.60
2018-12-05T05:04:48.581Z,18.40
2018-12-05T05:05:48.580Z,17.70
2018-12-05T05:06:48.588Z,18.20
2018-12-05T05:07:48.576Z,18.90
2018-12-05T05:08:48.605Z,18.50
2018-12-05T05:09:48.560Z,18.90
2018-12-05T05:10:48.563Z,20.10
2018-12-05T05:11:48.545Z,19.00
2018-12-05T05:12:48.549Z,20.00
2018-12-05T05:13:48.553Z,18.70
2018-12-05T05:14:48.541Z,19.50
2018-12-05T05:15:48.539Z,19.50
2018-12-05T05:16:48.542Z,20.10
2018-12-05T05:17:48.547Z,19.50
2018-12-05T05:18:48.537Z,19.70
2018-12-05T05:19:48.544Z,18.90
2018-12-05T05:20:48.526Z,19.20
2018-12-05T05:21:48.521Z,19.70
2018-12-05T05:22:48.537Z,19.30
2018-12-05T05:23:48.522Z,19.70
2018-12-05T05:24:48.509Z,18.80
2018-12-05T05:25:48.520Z,19.80
2018-12-05T05:26:48.506Z,20.60
2018-12-05T05:27:48.519Z,19.10
2018-12-05T05:28:48.542Z,19.10
2018-12-05T05:29:48.525Z,18.60
2018-12-05T05:30:48.549Z,18.70
2018-12-05T05:31:48.510Z,20.10
2018-12-05T05:32:48.490Z,21.00
2018-12-05T05:33:48.501Z,19.60
2018-12-05T05:34:48.490Z,19.70
2018-12-05T05:35:48.488Z,19.50
2018-12-05T05:36:48.483Z,19.10
2018-12-05T05:37:48.513Z,20.40
2018-12-05T05:38:48.483Z,19.30
2018-12-05T05:39:48.494Z,19.50
2018-12-05T05:40:48.493Z,18.70
2018-12-05T05:41:48.504Z,19.80
2018-12-05T05:42:48.476Z,20.50
2018-12-05T05:43:48.459Z,19.90
2018-12-05T05:44:48.453Z,19.20
2018-12-05T05:45:48.456Z,18.80
2018-12-05T05:46:48.455Z,19.60
2018-12-05T05:47:48.459Z,20.60
2018-12-05T05:48:48.459Z,20.80
2018-12-05T05:49:48.442Z,19.70
2018-12-05T05:50:48.431Z,19.90
2018-12-05T05:51:48.430Z,19.00
2018-12-05T05:52:48.470Z,20.20
2018-12-05T05:53:48.453Z,20.30
2018-12-05T05:54:48.413Z,20.90
2018-12-05T05:55:48.419Z,19.40
2018-12-05T05:56:48.409Z,19.30
2018-12-05T05:57:48.442Z,20.40
2018-12-05T05:58:48.430Z,19.80
2018-12-05T05:59:48.420Z,19.20
2018-12-05T06:00:48.426Z,18.20
2018-12-05T06:01:48.404Z,18.90
2018-12-05T06:02:48.405Z,17.80
2018-12-05T06:03:48.387Z,19.20
2018-12-05T06:04:48.395Z,19.60
2018-12-05T06:05:48.391Z,17.80
2018-12-05T06:06:48.408Z,17.80
2018-12-05T06:07:48.380Z,18.40
2018-12-05T06:08:48.378Z,19.60
2018-12-05T06:09:48.384Z,20.00
2018-12-05T06:10:48.389Z,18.20
2018-12-05T06:11:48.372Z,18.40
2018-12-05T06:12:48.369Z,18.40
2018-12-05T06:13:48.366Z,19.20
2018-12-05T06:14:48.362Z,19.40
2018-12-05T06:15:48.355Z,18.40
2018-12-05T06:16:48.352Z,18.70
2018-12-05T06:17:48.361Z,18.40
2018-12-05T06:18:48.378Z,18.10
2018-12-05T06:19:48.367Z,19.00
2018-12-05T06:20:48.369Z,19.40
2018-12-05T06:21:48.343Z,18.90
2018-12-05T06:22:48.375Z,18.40
2018-12-05T06:23:48.338Z,18.20
2018-12-05T06:24:48.321Z,19.40
2018-12-05T06:25:48.338Z,18.50
2018-12-05T06:26:48.320Z,18.90
2018-12-05T06:27:48.317Z,18.20
2018-12-05T06:28:48.321Z,17.40
2018-12-05T06:29:48.320Z,18.10
2018-12-05T06:30:48.328Z,20.00
2018-12-05T06:31:48.320Z,19.60
2018-12-05T06:32:48.321Z,18.00
2018-12-05T06:33:48.359Z,18.30
2018-12-05T06:34:48.295Z,18.00
2018-12-05T06:35:48.286Z,19.00
2018-12-05T06:36:48.299Z,18.70
2018-12-05T06:37:48.308Z,17.30
2018-12-05T06:38:48.282Z,18.20
2018-12-05T06:39:48.295Z,17.90
2018-12-05T06:40:48.294Z,18.00
2018-12-05T06:41:48.290Z,17.30
2018-12-05T06:42:48.292Z,17.20
2018-12-05T06:43:48.274Z,17.50
2018-12-05T06:44:48.274Z,18.00
2018-12-05T06:45:48.288Z,17.30
2018-12-05T06:46:48.261Z,18.20
2018-12-05T06:47:48.264Z,17.20
2018-12-05T06:48:48.261Z,17.00
2018-12-05T06:49:48.274Z,16.50
2018-12-05T06:50:48.252Z,17.70
2018-12-05T06:51:48.251Z,18.60
2018-12-05T06:52:48.328Z,18.60
2018-12-05T06:53:48.257Z,17.60
2018-12-05T06:54:48.242Z,17.60
2018-12-05T06:55:48.230Z,16.40
2018-12-05T06:56:48.241Z,18.00
2018-12-05T06:57:48.226Z,18.30
2018-12-05T06:58:48.229Z,17.00
2018-12-05T06:59:48.219Z,16.80
2018-12-05T07:00:48.231Z,16.40
2018-12-05T07:01:48.210Z,16.40
2018-12-05T07:02:48.221Z,17.10
2018-12-05T07:03:48.227Z,17.50
2018-12-05T07:04:48.218Z,16.70
2018-12-05T07:05:48.209Z,17.10
2018-12-05T07:06:48.221Z,16.50
2018-12-05T07:07:48.193Z,17.40
2018-12-05T07:08:48.196Z,18.00
2018-12-05T07:09:48.216Z,16.50
2018-12-05T07:10:48.209Z,16.30
2018-12-05T07:11:48.192Z,17.40
2018-12-05T07:12:48.199Z,16.70
2018-12-05T07:13:48.193Z,18.20
2018-12-05T07:14:48.204Z,16.50
2018-12-05T07:15:48.225Z,17.00
2018-12-05T07:16:48.209Z,16.40
2018-12-05T07:17:48.185Z,15.90
2018-12-05T07:18:48.164Z,17.10
2018-12-05T07:19:48.177Z,17.00
2018-12-05T07:20:48.194Z,16.90
2018-12-05T07:21:48.149Z,15.80
2018-12-05T07:22:48.206Z,16.90
2018-12-05T07:23:48.166Z,16.70
2018-12-05T07:24:48.177Z,16.60
2018-12-05T07:25:48.158Z,17.70
2018-12-05T07:26:48.164Z,16.40
2018-12-05T07:27:48.171Z,16.70
2018-12-05T07:28:48.158Z,16.10
2018-12-05T07:29:48.131Z,16.40
2018-12-05T07:30:48.139Z,17.30
2018-12-05T07:31:48.128Z,17.00
2018-12-05T07:32:48.149Z,17.10
2018-12-05T07:33:48.179Z,15.90
2018-12-05T07:34:48.138Z,16.80
2018-12-05T07:35:48.122Z,16.60
2018-12-05T07:36:48.103Z,15.80
2018-12-05T07:37:48.151Z,17.30
2018-12-05T07:38:48.105Z,16.90
2018-12-05T07:39:48.088Z,17.10
2018-12-05T07:40:48.097Z,16.50
2018-12-05T07:41:48.106Z,16.20
2018-12-05T07:42:48.095Z,17.00
2018-12-05T07:43:48.089Z,16.90
2018-12-05T07:44:48.082Z,15.60
2018-12-05T07:45:48.083Z,16.30
2018-12-05T07:46:48.094Z,16.40
2018-12-05T07:47:48.086Z,15.90
2018-12-05T07:48:48.078Z,16.70
2018-12-05T07:49:48.069Z,16.30
2018-12-05T07:50:48.067Z,16.20
2018-12-05T07:51:48.057Z,16.00
2018-12-05T07:52:48.052Z,16.40
2018-12-05T07:53:48.051Z,16.80
2018-12-05T07:54:48.075Z,16.40
2018-12-05T07:55:48.058Z,16.20
2018-12-05T07:56:48.035Z,16.80
2018-12-05T07:57:48.060Z,16.60
2018-12-05T07:58:48.050Z,16.20
2018-12-05T07:59:48.048Z,16.60
2018-12-05T08:00:48.042Z,16.90
2018-12-05T08:01:48.037Z,16.00
2018-12-05T08:02:48.028Z,16.40
2018-12-05T08:03:48.023Z,16.10
2018-12-05T08:04:48.014Z,16.10
2018-12-05T08:05:48.103Z,16.10
2018-12-05T08:06:48.084Z,16.60
2018-12-05T08:07:48.028Z,16.90
2018-12-05T08:08:48.008Z,16.70
2018-12-05T08:09:48.013Z,15.80
2018-12-05T08:10:48.000Z,16.50
2018-12-05T08:11:47.998Z,16.20
2018-12-05T08:12:48.888Z,16.90
2018-12-05T08:13:48.013Z,16.40
2018-12-05T08:14:47.996Z,15.50
2018-12-05T08:15:47.991Z,16.10
2018-12-05T08:16:47.987Z,16.50
2018-12-05T08:17:48.010Z,15.20
2018-12-05T08:18:48.030Z,15.80
2018-12-05T08:19:48.344Z,15.50
2018-12-05T08:20:47.985Z,16.60
2018-12-05T08:21:47.981Z,15.90
2018-12-05T08:22:47.976Z,16.10
2018-12-05T08:23:47.977Z,15.50
2018-12-05T08:24:47.953Z,15.10
2018-12-05T08:25:48.001Z,15.60
2018-12-05T08:26:47.968Z,14.90
2018-12-05T08:27:47.974Z,16.00
2018-12-05T08:28:48.039Z,16.00
2018-12-05T08:29:47.957Z,16.20
2018-12-05T08:30:47.952Z,14.90
2018-12-05T08:31:47.952Z,14.30
2018-12-05T08:32:48.176Z,14.80
2018-12-05T08:33:47.989Z,14.60
2018-12-05T08:34:47.956Z,14.20
2018-12-05T08:35:47.965Z,14.30
2018-12-05T08:36:47.942Z,14.10
2018-12-05T08:37:48.011Z,14.20
2018-12-05T08:38:47.941Z,13.90
2018-12-05T08:39:47.981Z,14.80
2018-12-05T08:40:47.950Z,14.10
2018-12-05T08:41:47.948Z,14.20
2018-12-05T08:42:47.922Z,14.10
2018-12-05T08:43:47.915Z,13.10
2018-12-05T08:44:47.919Z,13.00
2018-12-05T08:45:47.908Z,13.00
2018-12-05T08:46:47.914Z,13.50
2018-12-05T08:47:47.918Z,13.80
2018-12-05T08:48:47.902Z,13.80
2018-12-05T08:49:47.909Z,13.40
2018-12-05T08:50:47.917Z,14.30
2018-12-05T08:51:47.916Z,13.80
2018-12-05T08:52:47.917Z,14.10
2018-12-05T08:53:47.890Z,13.40
2018-12-05T08:54:47.942Z,14.70
2018-12-05T08:55:47.882Z,13.60
2018-12-05T08:56:47.891Z,15.00
2018-12-05T08:57:47.941Z,15.60
2018-12-05T08:58:47.923Z,14.70
2018-12-05T08:59:47.893Z,15.70
2018-12-05T09:00:47.893Z,14.40
2018-12-05T09:01:47.891Z,14.50
2018-12-05T09:02:47.890Z,14.90
2018-12-05T09:03:47.877Z,14.20
2018-12-05T09:04:47.891Z,14.50
2018-12-05T09:05:47.898Z,15.00
2018-12-05T09:06:47.862Z,15.00
2018-12-05T09:07:48.039Z,15.60
2018-12-05T09:08:47.976Z,15.00
2018-12-05T09:09:47.859Z,15.80
2018-12-05T09:10:47.861Z,15.00
2018-12-05T09:11:47.909Z,15.00
2018-12-05T09:12:47.911Z,14.20
2018-12-05T09:13:47.849Z,14.80
2018-12-05T09:14:47.851Z,13.70
2018-12-05T09:15:47.886Z,13.70
2018-12-05T09:16:47.882Z,14.40
2018-12-05T09:17:47.853Z,14.00
2018-12-05T09:18:47.867Z,13.60
2018-12-05T09:19:47.874Z,12.60
2018-12-05T09:20:47.835Z,12.70
2018-12-05T09:21:47.835Z,12.80
2018-12-05T09:22:47.841Z,13.10
2018-12-05T09:23:47.904Z,12.10
2018-12-05T09:24:47.867Z,12.50
2018-12-05T09:25:47.839Z,12.30
2018-12-05T09:26:47.821Z,12.20
2018-12-05T09:27:47.820Z,12.30
2018-12-05T09:28:47.830Z,11.80
2018-12-05T09:29:47.945Z,11.90
2018-12-05T09:30:47.834Z,11.90
2018-12-05T09:31:47.819Z,11.90
2018-12-05T09:32:47.869Z,11.50
2018-12-05T09:33:47.830Z,12.70
2018-12-05T09:34:47.801Z,12.10
2018-12-05T09:35:47.825Z,12.40
2018-12-05T09:36:47.826Z,11.30
2018-12-05T09:37:47.803Z,11.80
2018-12-05T09:38:47.801Z,11.70
2018-12-05T09:39:47.809Z,12.80
2018-12-05T09:40:47.806Z,11.10
2018-12-05T09:41:47.800Z,12.00
2018-12-05T09:42:47.789Z,10.80
2018-12-05T09:43:47.792Z,11.70
2018-12-05T09:44:47.797Z,12.00
2018-12-05T09:45:47.837Z,11.80
2018-12-05T09:46:47.790Z,11.90
2018-12-05T09:47:47.801Z,11.50
2018-12-05T09:48:47.869Z,11.20
2018-12-05T09:49:47.795Z,12.10
2018-12-05T09:50:47.803Z,12.00
2018-12-05T09:51:47.807Z,11.00
2018-12-05T09:52:47.801Z,12.20
2018-12-05T09:53:47.772Z,11.60
2018-12-05T09:54:47.838Z,11.50
2018-12-05T09:55:47.818Z,10.90
2018-12-05T09:56:47.774Z,10.90
2018-12-05T09:57:47.758Z,11.40
2018-12-05T09:58:47.761Z,11.70
2018-12-05T09:59:47.772Z,10.70
2018-12-05T10:00:47.756Z,10.50
2018-12-05T10:01:47.858Z,10.50
2018-12-05T10:02:47.795Z,11.80
2018-12-05T10:03:47.861Z,10.90
2018-12-05T10:04:47.802Z,10.60
2018-12-05T10:05:47.803Z,10.70
2018-12-05T10:06:47.805Z,9.80
2018-12-05T10:07:47.827Z,10.00
2018-12-05T10:08:47.758Z,10.40
2018-12-05T10:09:47.812Z,10.30
2018-12-05T10:10:47.756Z,9.70
2018-12-05T10:11:47.746Z,10.20
2018-12-05T10:12:47.744Z,10.20
2018-12-05T10:13:47.748Z,11.40
2018-12-05T10:14:47.774Z,10.60
2018-12-05T10:15:47.755Z,10.80
2018-12-05T10:16:47.761Z,10.90
2018-12-05T10:17:47.781Z,10.20
2018-12-05T10:18:47.783Z,10.30
2018-12-05T10:19:47.736Z,10.00
2018-12-05T10:20:47.736Z,10.10
2018-12-05T10:21:47.732Z,11.10
2018-12-05T10:22:47.739Z,11.50
2018-12-05T10:23:47.750Z,11.10
2018-12-05T10:24:47.726Z,11.10
2018-12-05T10:25:47.733Z,11.00
2018-12-05T10:26:47.719Z,10.20
2018-12-05T10:27:47.741Z,10.50
2018-12-05T10:28:47.748Z,10.70
2018-12-05T10:29:47.727Z,10.20
2018-12-05T10:30:47.732Z,10.70
2018-12-05T10:31:47.711Z,10.70
2018-12-05T10:32:47.721Z,10.50
2018-12-05T10:33:47.707Z,10.50
2018-12-05T10:34:47.708Z,10.60
2018-12-05T10:35:47.723Z,10.90
2018-12-05T10:36:47.781Z,10.50
2018-12-05T10:37:47.707Z,10.50
2018-12-05T10:38:47.762Z,10.30
2018-12-05T10:39:47.741Z,11.10
2018-12-05T10:40:47.732Z,10.20
2018-12-05T10:41:47.735Z,11.00
2018-12-05T10:42:47.733Z,10.80
2018-12-05T10:43:47.726Z,10.20
2018-12-05T10:44:47.739Z,10.50
2018-12-05T10:45:47.700Z,10.40
2018-12-05T10:46:47.705Z,10.70
2018-12-05T10:47:47.808Z,11.50
2018-12-05T10:48:48.467Z,11.30
2018-12-05T10:49:47.713Z,10.80
2018-12-05T10:50:47.798Z,10.50
2018-12-05T10:51:48.359Z,10.60
2018-12-05T10:52:47.785Z,11.00
2018-12-05T10:53:47.687Z,10.80
2018-12-05T10:54:47.721Z,11.30
2018-12-05T10:55:47.695Z,10.70
2018-12-05T10:56:47.820Z,10.80
2018-12-05T10:57:47.672Z,11.00
2018-12-05T10:58:47.664Z,11.10
2018-12-05T10:59:47.681Z,11.30
2018-12-05T11:00:47.760Z,11.10
2018-12-05T11:01:47.673Z,11.40
2018-12-05T11:02:47.684Z,11.40
2018-12-05T11:03:47.662Z,11.10
2018-12-05T11:04:47.680Z,11.20
2018-12-05T11:05:47.660Z,10.80
2018-12-05T11:06:47.674Z,11.60
2018-12-05T11:07:47.707Z,11.80
2018-12-05T11:08:47.777Z,11.50
2018-12-05T11:09:47.657Z,11.50
2018-12-05T11:10:47.699Z,11.50
2018-12-05T11:11:47.704Z,11.30
2018-12-05T11:12:47.734Z,11.00
2018-12-05T11:13:47.679Z,11.30
2018-12-05T11:14:47.751Z,10.40
2018-12-05T11:15:47.710Z,10.80
2018-12-05T11:16:47.657Z,10.40
2018-12-05T11:17:47.660Z,11.00
2018-12-05T11:18:47.684Z,15.80
2018-12-05T11:19:47.728Z,12.30
2018-12-05T11:20:47.937Z,11.30
2018-12-05T11:21:49.789Z,10.80
2018-12-05T11:22:47.642Z,10.30
2018-12-05T11:23:47.666Z,10.00
2018-12-05T11:24:47.669Z,10.00
2018-12-05T11:25:47.710Z,9.80
2018-12-05T11:26:47.665Z,9.50
2018-12-05T11:27:47.645Z,10.70
2018-12-05T11:28:47.661Z,9.60
2018-12-05T11:29:47.656Z,9.50
2018-12-05T11:30:47.655Z,9.00
2018-12-05T11:31:47.614Z,9.40
2018-12-05T11:32:47.651Z,10.10
2018-12-05T11:33:47.653Z,9.90
2018-12-05T11:34:47.663Z,10.10
2018-12-05T11:35:47.614Z,9.70
2018-12-05T11:36:47.649Z,9.60
2018-12-05T11:37:47.616Z,9.30
2018-12-05T11:38:47.630Z,9.60
2018-12-05T11:39:47.664Z,9.70
2018-12-05T11:40:47.635Z,10.10
2018-12-05T11:41:47.620Z,10.40
2018-12-05T11:42:47.601Z,9.90
2018-12-05T11:43:47.597Z,9.30
2018-12-05T11:44:47.620Z,10.50
2018-12-05T11:45:47.636Z,10.80
2018-12-05T11:46:48.565Z,9.30
2018-12-05T11:47:47.602Z,9.90
2018-12-05T11:48:47.643Z,10.60
2018-12-05T11:49:47.592Z,9.60
2018-12-05T11:50:47.594Z,9.80
2018-12-05T11:51:47.586Z,9.10
2018-12-05T11:52:47.581Z,9.50
2018-12-05T11:53:47.649Z,9.60
2018-12-05T11:54:47.586Z,8.90
2018-12-05T11:55:47.586Z,9.30
2018-12-05T11:56:47.607Z,9.10
2018-12-05T11:57:47.611Z,9.10
2018-12-05T11:58:47.599Z,8.90
2018-12-05T11:59:47.668Z,9.10
2018-12-05T12:00:47.596Z,11.60
2018-12-05T12:01:47.582Z,10.20
2018-12-05T12:02:47.621Z,9.30
2018-12-05T12:03:47.590Z,10.10
2018-12-05T12:04:47.590Z,15.90
2018-12-05T12:05:47.574Z,9.20
2018-12-05T12:06:47.603Z,9.20
2018-12-05T12:07:47.574Z,8.80
2018-12-05T12:08:47.563Z,9.30
2018-12-05T12:09:47.618Z,9.60
2018-12-05T12:10:47.634Z,9.70
2018-12-05T12:11:47.588Z,9.30
2018-12-05T12:12:47.694Z,9.80
2018-12-05T12:13:47.559Z,10.00
2018-12-05T12:14:47.563Z,9.40
2018-12-05T12:15:47.562Z,9.00
2018-12-05T12:16:47.560Z,9.30
2018-12-05T12:17:47.578Z,9.10
2018-12-05T12:18:47.580Z,9.30
2018-12-05T12:19:47.578Z,8.80
2018-12-05T12:20:47.551Z,8.60
2018-12-05T12:21:47.558Z,8.80
2018-12-05T12:22:47.586Z,8.70
2018-12-05T12:23:47.558Z,8.90
2018-12-05T12:24:47.613Z,8.60
2018-12-05T12:25:47.569Z,9.00
2018-12-05T12:26:47.546Z,9.40
2018-12-05T12:27:47.587Z,9.10
2018-12-05T12:28:47.560Z,9.40
2018-12-05T12:29:47.546Z,9.10
2018-12-05T12:30:47.563Z,8.50
2018-12-05T12:31:47.530Z,8.90
2018-12-05T12:32:47.554Z,9.10
2018-12-05T12:33:47.552Z,8.60
2018-12-05T12:34:47.542Z,9.00
2018-12-05T12:35:47.537Z,9.70
2018-12-05T12:36:48.074Z,8.70
2018-12-05T12:37:47.587Z,8.60
2018-12-05T12:38:47.571Z,9.10
2018-12-05T12:39:47.536Z,8.80
2018-12-05T12:40:47.613Z,8.60
2018-12-05T12:41:47.550Z,8.80
2018-12-05T12:42:47.707Z,9.00
2018-12-05T12:43:47.618Z,8.80
2018-12-05T12:44:47.532Z,9.40
2018-12-05T12:45:47.516Z,8.80
2018-12-05T12:46:47.522Z,8.90
2018-12-05T12:47:47.508Z,8.90
2018-12-05T12:48:47.509Z,8.50
2018-12-05T12:49:47.534Z,9.20
2018-12-05T12:50:47.540Z,9.00
2018-12-05T12:51:47.505Z,8.90
2018-12-05T12:52:47.508Z,9.00
2018-12-05T12:53:47.498Z,8.80
2018-12-05T12:54:47.504Z,8.40
2018-12-05T12:55:47.504Z,8.60